Wroclaw, Poland
Current Conditions -  °F | °C
As of 4:30 AM on Friday 21 Nov 2014 (Local Time) from EPWR Reporting Station
Drizzle Drizzle  
Wind Chill: 36°   Ceiling: 200
Heat Index: 39°   Visibility: 1.2mi
Dew Point: 39°   Wind: 5mph
Humidity: 100%   Direction: 330°NNW
Pressure: 30.3"   Gusts: NA
Location:  51.11°N, 17.03°E
Report Text: EPWR 210230Z 33004KT 2000 -DZ BR BKN002 OVC004 04/04 Q1026
Loading
Personal Weather Stations






























Interactive Weather Map New forecast layout! Learn more

10-Day Weather Forecast

Advertisements
Track Severe Weather on mobile